Torre — CSHA — position and weather

sailwx.info

Track history (hours):
 
Tides and Currents Weather Stations Pressure Air Temp Water Temp Dewpoint Dewpoint Depression Visibility Wind Speed Wind Dir Waves Ship Positions

Torre

Last reported at 2017-Oct-15 17:53 UTC. Time now 2017-Oct-17 01:21 UTC.
Position N 38°30' W 008°56'.

Length 10 m; draft 1 m.

Type: Pilot. MMSI: 263671570.

Date/timePositionNaut miles runAvg speedWind from/ knotsBaromVisibWave heightAir tempDewpointWater temp
2017-Oct-15 17:53N 38°30' W 008°56'3 6.2
2017-Oct-15 17:20N 38°27' W 008°58'0 0.4
2017-Oct-15 16:53N 38°27' W 008°58'2 1.2
2017-Oct-15 15:10N 38°25' W 008°60'2 8.5
2017-Oct-15 14:58N 38°27' W 008°59'2 0.2
2017-Oct-15 04:58N 38°25' W 009°00'6 0.2
2017-Oct-14 01:33N 38°30' W 008°56'115.8
2017-Oct-14 01:30N 38°29' W 008°56'3 0.1
2017-Oct-11 23:53N 38°31' W 008°54'1 0.7
2017-Oct-11 22:58N 38°31' W 008°54'1 0.0
2017-Oct-10 21:20N 38°31' W 008°54'3 7.9
2017-Oct-10 21:00N 38°29' W 008°56'3 1.8
2017-Oct-10 19:30N 38°31' W 008°54'4 7.1
2017-Oct-10 19:00N 38°28' W 008°57'3 6.7
2017-Oct-10 18:30N 38°26' W 008°59'713.1
2017-Oct-10 17:58N 38°31' W 008°54'3 5.4
2017-Oct-10 17:27N 38°29' W 008°56'2 4.8
2017-Oct-10 16:56N 38°27' W 008°58'1 3.0
2017-Oct-10 16:27N 38°26' W 008°59'7 2.4
2017-Oct-10 13:38N 38°31' W 008°54'215.9
2017-Oct-10 13:30N 38°30' W 008°56'4 8.5
2017-Oct-10 13:00N 38°26' W 008°59'5 3.7
2017-Oct-10 11:34N 38°31' W 008°55'116.9
2017-Oct-10 11:30N 38°30' W 008°56'713.6
2017-Oct-10 11:01N 38°25' W 009°01'3 6.2
2017-Oct-10 10:30N 38°27' W 008°58'5 0.3
2017-Oct-09 18:11N 38°31' W 008°54'314.9
2017-Oct-09 17:59N 38°29' W 008°56'0 0.9
2017-Oct-09 17:30N 38°29' W 008°56'0 0.5
2017-Oct-09 17:00N 38°30' W 008°56'1 1.4
2017-Oct-09 16:24N 38°29' W 008°56'3 4.5
2017-Oct-09 15:43N 38°31' W 008°54'316.9
2017-Oct-09 15:31N 38°29' W 008°57'1 1.3
2017-Oct-09 15:00N 38°29' W 008°56'3 3.5
2017-Oct-09 14:13N 38°31' W 008°54'519.2
2017-Oct-09 13:58N 38°28' W 008°58'3 5.4
2017-Oct-09 13:30N 38°29' W 008°56'2 3.9
2017-Oct-09 13:00N 38°31' W 008°54'0 0.1
2017-Oct-09 09:39N 38°31' W 008°54'0 1.2
2017-Oct-09 09:28N 38°31' W 008°54'1 0.1
2017-Oct-08 21:33N 38°30' W 008°55'214.9
2017-Oct-08 21:26N 38°29' W 008°56'1 1.2
2017-Oct-08 20:53N 38°28' W 008°56'1 0.1
2017-Oct-08 10:58N 38°28' W 008°58'4 0.4
2017-Oct-08 01:48N 38°31' W 008°54'2 0.3
2017-Oct-07 19:05N 38°29' W 008°56'313.8
2017-Oct-07 18:53N 38°27' W 008°58'6 0.4
2017-Oct-07 02:43N 38°31' W 008°54'417.3
2017-Oct-07 02:30N 38°28' W 008°57'3 5.7
2017-Oct-07 02:00N 38°26' W 008°59'7 2.0
2017-Oct-06 22:43N 38°31' W 008°54'618.9
2017-Oct-06 22:25N 38°27' W 008°58'3 2.9
2017-Oct-06 21:20N 38°29' W 008°56'2 5.2
2017-Oct-06 21:00N 38°28' W 008°57'2 0.6
2017-Oct-06 18:25N 38°29' W 008°56'1 2.9
2017-Oct-06 17:59N 38°28' W 008°57'4 0.4
2017-Oct-06 08:58N 38°31' W 008°54'0 0.1
2017-Oct-06 04:58N 38°31' W 008°54'713.0
2017-Oct-06 04:26N 38°26' W 008°60'4 3.3
2017-Oct-06 03:13N 38°29' W 008°56'417.4
2017-Oct-06 03:00N 38°26' W 008°59'  
Track history (hours):
 
Tides and Currents Weather Stations Pressure Air Temp Water Temp Dewpoint Dewpoint Depression Visibility Wind Speed Wind Dir Waves Ship Positions

Torre

Last reported at 2017-Oct-15 17:53 UTC. Time now 2017-Oct-17 01:21 UTC.
Position N 38°30' W 008°56'.

Length 10 m; draft 1 m.

Type: Pilot. MMSI: 263671570.

Date/timePositionNaut miles runAvg speedWind from/ knotsBaromVisibWave heightAir tempDewpointWater temp
2017-Oct-15 17:53N 38°30' W 008°56'3 6.2
2017-Oct-15 17:20N 38°27' W 008°58'0 0.4
2017-Oct-15 16:53N 38°27' W 008°58'2 1.2
2017-Oct-15 15:10N 38°25' W 008°60'2 8.5
2017-Oct-15 14:58N 38°27' W 008°59'2 0.2
2017-Oct-15 04:58N 38°25' W 009°00'6 0.2
2017-Oct-14 01:33N 38°30' W 008°56'115.8
2017-Oct-14 01:30N 38°29' W 008°56'3 0.1
2017-Oct-11 23:53N 38°31' W 008°54'1 0.7
2017-Oct-11 22:58N 38°31' W 008°54'1 0.0
2017-Oct-10 21:20N 38°31' W 008°54'3 7.9
2017-Oct-10 21:00N 38°29' W 008°56'3 1.8
2017-Oct-10 19:30N 38°31' W 008°54'4 7.1
2017-Oct-10 19:00N 38°28' W 008°57'3 6.7
2017-Oct-10 18:30N 38°26' W 008°59'713.1
2017-Oct-10 17:58N 38°31' W 008°54'3 5.4
2017-Oct-10 17:27N 38°29' W 008°56'2 4.8
2017-Oct-10 16:56N 38°27' W 008°58'1 3.0
2017-Oct-10 16:27N 38°26' W 008°59'7 2.4
2017-Oct-10 13:38N 38°31' W 008°54'215.9
2017-Oct-10 13:30N 38°30' W 008°56'4 8.5
2017-Oct-10 13:00N 38°26' W 008°59'5 3.7
2017-Oct-10 11:34N 38°31' W 008°55'116.9
2017-Oct-10 11:30N 38°30' W 008°56'713.6
2017-Oct-10 11:01N 38°25' W 009°01'3 6.2
2017-Oct-10 10:30N 38°27' W 008°58'5 0.3
2017-Oct-09 18:11N 38°31' W 008°54'314.9
2017-Oct-09 17:59N 38°29' W 008°56'0 0.9
2017-Oct-09 17:30N 38°29' W 008°56'0 0.5
2017-Oct-09 17:00N 38°30' W 008°56'1 1.4
2017-Oct-09 16:24N 38°29' W 008°56'3 4.5
2017-Oct-09 15:43N 38°31' W 008°54'316.9
2017-Oct-09 15:31N 38°29' W 008°57'1 1.3
2017-Oct-09 15:00N 38°29' W 008°56'3 3.5
2017-Oct-09 14:13N 38°31' W 008°54'519.2
2017-Oct-09 13:58N 38°28' W 008°58'3 5.4
2017-Oct-09 13:30N 38°29' W 008°56'2 3.9
2017-Oct-09 13:00N 38°31' W 008°54'0 0.1
2017-Oct-09 09:39N 38°31' W 008°54'0 1.2
2017-Oct-09 09:28N 38°31' W 008°54'1 0.1
2017-Oct-08 21:33N 38°30' W 008°55'214.9
2017-Oct-08 21:26N 38°29' W 008°56'1 1.2
2017-Oct-08 20:53N 38°28' W 008°56'1 0.1
2017-Oct-08 10:58N 38°28' W 008°58'4 0.4
2017-Oct-08 01:48N 38°31' W 008°54'2 0.3
2017-Oct-07 19:05N 38°29' W 008°56'313.8
2017-Oct-07 18:53N 38°27' W 008°58'6 0.4
2017-Oct-07 02:43N 38°31' W 008°54'417.3
2017-Oct-07 02:30N 38°28' W 008°57'3 5.7
2017-Oct-07 02:00N 38°26' W 008°59'7 2.0
2017-Oct-06 22:43N 38°31' W 008°54'618.9
2017-Oct-06 22:25N 38°27' W 008°58'3 2.9
2017-Oct-06 21:20N 38°29' W 008°56'2 5.2
2017-Oct-06 21:00N 38°28' W 008°57'2 0.6
2017-Oct-06 18:25N 38°29' W 008°56'1 2.9
2017-Oct-06 17:59N 38°28' W 008°57'4 0.4
2017-Oct-06 08:58N 38°31' W 008°54'0 0.1
2017-Oct-06 04:58N 38°31' W 008°54'713.0
2017-Oct-06 04:26N 38°26' W 008°60'4 3.3
2017-Oct-06 03:13N 38°29' W 008°56'417.4
2017-Oct-06 03:00N 38°26' W 008°59'  

Dump ship's entire track history